createdAt,value
2023-05-14T00:00:40.444Z,101809.44
2023-05-14T00:03:07.145Z,101789.91
2023-05-14T00:05:33.686Z,101795.97
2023-05-14T00:08:00.121Z,101795.06
2023-05-14T00:10:27.437Z,101809.88
2023-05-14T00:12:53.976Z,101805.75
2023-05-14T00:15:20.627Z,101778.69
2023-05-14T00:17:47.203Z,101803.31
2023-05-14T00:20:13.658Z,101801.03
2023-05-14T00:22:40.800Z,101804.09
2023-05-14T00:25:08.199Z,101801.78
2023-05-14T00:27:35.499Z,101775.81
2023-05-14T00:30:02.626Z,101785.03
2023-05-14T00:32:29.039Z,101793.66
2023-05-14T00:34:55.675Z,101750.97
2023-05-14T00:37:22.203Z,101793.41
2023-05-14T00:39:48.664Z,101779.00
2023-05-14T00:42:15.258Z,101752.19
2023-05-14T00:44:44.242Z,101796.84
2023-05-14T00:47:13.245Z,101781.56
2023-05-14T00:49:40.885Z,101775.63
2023-05-14T00:52:08.002Z,101783.78
2023-05-14T00:54:35.126Z,101735.72
2023-05-14T00:57:02.179Z,101777.31
2023-05-14T00:59:28.787Z,101779.53
2023-05-14T01:01:55.337Z,101733.16
2023-05-14T01:04:22.085Z,101771.75
2023-05-14T01:07:07.101Z,101772.00
2023-05-14T01:09:46.198Z,101754.28
2023-05-14T01:12:24.686Z,101783.06
2023-05-14T01:15:06.562Z,101793.97
2023-05-14T01:17:38.125Z,101790.09
2023-05-14T01:20:05.215Z,101787.56
2023-05-14T01:22:32.057Z,101756.63
2023-05-14T01:24:58.456Z,101794.84
2023-05-14T01:27:46.957Z,101787.78
2023-05-14T01:30:26.906Z,101799.31
2023-05-14T01:32:56.254Z,101785.88
2023-05-14T01:35:26.288Z,101776.28
2023-05-14T01:37:59.601Z,101764.63
2023-05-14T01:40:26.809Z,101767.63
2023-05-14T01:42:54.052Z,101790.97
2023-05-14T01:45:21.380Z,101761.94
2023-05-14T01:47:48.094Z,101782.81
2023-05-14T01:50:14.569Z,101785.97
2023-05-14T01:52:41.334Z,101783.44
2023-05-14T01:55:08.553Z,101784.41
2023-05-14T01:57:35.082Z,101785.47
2023-05-14T02:00:02.010Z,101775.03
2023-05-14T02:02:28.480Z,101777.00
2023-05-14T02:04:55.189Z,101776.00
2023-05-14T02:07:21.623Z,101773.97
2023-05-14T02:09:48.030Z,101755.25
2023-05-14T02:12:14.471Z,101778.09
2023-05-14T02:14:41.020Z,101774.19
2023-05-14T02:17:07.570Z,101784.63
2023-05-14T02:19:34.056Z,101753.06
2023-05-14T02:22:01.185Z,101768.97
2023-05-14T02:24:27.622Z,101774.31
2023-05-14T02:26:54.181Z,101763.28
2023-05-14T02:29:20.603Z,101748.94
2023-05-14T02:31:47.044Z,101767.03
2023-05-14T02:34:13.463Z,101768.72
2023-05-14T02:36:39.993Z,101770.66
2023-05-14T02:39:06.615Z,101757.19
2023-05-14T02:41:33.087Z,101772.72
2023-05-14T02:43:59.618Z,101749.53
2023-05-14T02:46:26.174Z,101718.81
2023-05-14T02:48:52.713Z,101746.03
2023-05-14T02:51:21.304Z,101746.75
2023-05-14T02:53:47.754Z,101743.56
2023-05-14T02:56:14.414Z,101754.75
2023-05-14T02:58:41.112Z,101691.09
2023-05-14T03:01:07.742Z,101760.09
2023-05-14T03:03:36.240Z,101752.44
2023-05-14T03:06:02.993Z,101753.06
2023-05-14T03:08:29.460Z,101743.69
2023-05-14T03:10:55.899Z,101748.19
2023-05-14T03:13:22.313Z,101755.97
2023-05-14T03:15:48.885Z,101756.91
2023-05-14T03:18:15.334Z,101758.97
2023-05-14T03:20:42.115Z,101752.66
2023-05-14T03:23:10.900Z,101735.06
2023-05-14T03:25:37.336Z,101653.31
2023-05-14T03:28:03.947Z,101704.78
2023-05-14T03:30:30.562Z,101694.59
2023-05-14T03:32:57.532Z,101708.56
2023-05-14T03:35:24.065Z,101760.78
2023-05-14T03:37:52.751Z,101759.09
2023-05-14T03:40:19.322Z,101751.94
2023-05-14T03:42:45.786Z,101724.13
2023-05-14T03:45:12.220Z,101737.03
2023-05-14T03:47:38.724Z,101719.28
2023-05-14T03:50:05.732Z,101733.50
2023-05-14T03:52:32.235Z,101740.91
2023-05-14T03:54:58.779Z,101740.91
2023-05-14T03:57:25.247Z,101745.91
2023-05-14T03:59:52.093Z,101751.13
2023-05-14T04:02:18.927Z,101741.41
2023-05-14T04:04:45.604Z,101745.78
2023-05-14T04:07:12.296Z,101750.50
2023-05-14T04:09:38.794Z,101725.88
2023-05-14T04:12:05.733Z,101737.78
2023-05-14T04:14:32.332Z,101700.75
2023-05-14T04:17:00.264Z,101724.31
2023-05-14T04:19:26.931Z,101749.56
2023-05-14T04:21:53.451Z,101746.53
2023-05-14T04:24:19.882Z,101727.38
2023-05-14T04:26:46.328Z,101731.22
2023-05-14T04:29:12.894Z,101752.84
2023-05-14T04:31:39.690Z,101708.28
2023-05-14T04:34:06.173Z,101756.22
2023-05-14T04:36:32.626Z,101755.72
2023-05-14T04:38:59.053Z,101744.94
2023-05-14T04:41:25.580Z,101730.72
2023-05-14T04:43:56.411Z,101749.59
2023-05-14T04:46:23.011Z,101736.88
2023-05-14T04:48:50.329Z,101727.88
2023-05-14T04:51:17.092Z,101760.25
2023-05-14T04:53:43.497Z,101698.75
2023-05-14T04:56:09.996Z,101764.34
2023-05-14T04:58:36.399Z,101761.88
2023-05-14T05:01:05.043Z,101728.13
2023-05-14T05:03:31.969Z,101752.31
2023-05-14T05:05:58.521Z,101754.22
2023-05-14T05:08:24.959Z,101753.31
2023-05-14T05:10:51.456Z,101713.63
2023-05-14T05:13:17.923Z,101715.13
2023-05-14T05:15:44.460Z,101730.47
2023-05-14T05:18:10.949Z,101748.16
2023-05-14T05:20:37.358Z,101752.78
2023-05-14T05:23:06.812Z,101748.75
2023-05-14T05:25:33.403Z,101744.56
2023-05-14T05:27:59.915Z,101697.41
2023-05-14T05:30:26.466Z,101754.13
2023-05-14T05:32:53.245Z,101729.84
2023-05-14T05:35:19.860Z,101743.44
2023-05-14T05:37:46.497Z,101749.09
2023-05-14T05:40:14.340Z,101712.38
2023-05-14T05:42:41.455Z,101761.91
2023-05-14T05:45:08.661Z,101729.56
2023-05-14T05:47:41.481Z,101761.75
2023-05-14T05:50:09.688Z,101757.47
2023-05-14T05:52:36.205Z,101750.84
2023-05-14T05:55:02.690Z,101732.38
2023-05-14T05:57:29.166Z,101762.63
2023-05-14T05:59:55.571Z,101760.34
2023-05-14T06:02:22.794Z,101726.88
2023-05-14T06:04:49.350Z,101711.19
2023-05-14T06:07:15.920Z,101740.13
2023-05-14T06:09:42.283Z,101737.75
2023-05-14T06:12:08.984Z,101756.16
2023-05-14T06:14:35.696Z,101728.72
2023-05-14T06:17:02.343Z,101713.25
2023-05-14T06:19:28.916Z,101736.81
2023-05-14T06:21:56.013Z,101718.09
2023-05-14T06:24:22.434Z,101701.59
2023-05-14T06:26:49.327Z,101741.50
2023-05-14T06:29:18.738Z,101733.22
2023-05-14T06:31:45.652Z,101738.44
2023-05-14T06:34:12.180Z,101605.97
2023-05-14T06:36:38.816Z,101715.09
2023-05-14T06:39:05.278Z,101746.25
2023-05-14T06:41:31.932Z,101732.94
2023-05-14T06:43:58.391Z,101757.19
2023-05-14T06:46:24.821Z,101716.84
2023-05-14T06:48:51.360Z,101754.91
2023-05-14T06:51:17.791Z,101725.56
2023-05-14T06:53:44.393Z,101751.81
2023-05-14T06:56:10.883Z,101759.75
2023-05-14T06:58:37.453Z,101703.00
2023-05-14T07:01:04.147Z,101748.88
2023-05-14T07:03:30.713Z,101746.13
2023-05-14T07:05:57.184Z,101759.06
2023-05-14T07:08:23.604Z,101746.88
2023-05-14T07:10:50.046Z,101744.75
2023-05-14T07:13:16.517Z,101746.72
2023-05-14T07:15:42.994Z,101741.13
2023-05-14T07:18:09.417Z,101745.06
2023-05-14T07:20:36.033Z,101720.19
2023-05-14T07:23:02.449Z,101728.47
2023-05-14T07:25:28.873Z,101681.81
2023-05-14T07:27:55.741Z,101730.69
2023-05-14T07:30:22.501Z,101728.34
2023-05-14T07:32:49.510Z,101731.84
2023-05-14T07:35:16.291Z,101711.78
2023-05-14T07:37:42.963Z,101735.44
2023-05-14T07:40:09.676Z,101724.00
2023-05-14T07:42:37.296Z,101728.25
2023-05-14T07:45:04.786Z,101687.75
2023-05-14T07:47:31.333Z,101726.28
2023-05-14T07:49:58.358Z,101719.22
2023-05-14T07:52:25.191Z,101710.03
2023-05-14T07:57:19.908Z,101714.53
2023-05-14T07:59:47.883Z,101710.19
2023-05-14T08:02:16.292Z,101722.00
2023-05-14T08:04:42.990Z,101705.47
2023-05-14T08:07:09.491Z,101705.53
2023-05-14T08:09:35.985Z,101692.13
2023-05-14T08:12:02.693Z,101663.81
2023-05-14T08:14:29.186Z,101699.75
2023-05-14T08:16:55.873Z,101679.22
2023-05-14T08:19:23.935Z,101697.09
2023-05-14T08:21:51.257Z,101716.00
2023-05-14T08:24:18.865Z,101675.72
2023-05-14T08:26:45.389Z,101700.34
2023-05-14T08:29:12.962Z,101638.88
2023-05-14T08:31:41.194Z,101692.19
2023-05-14T08:34:07.623Z,101679.19
2023-05-14T08:36:34.045Z,101678.38
2023-05-14T08:39:00.472Z,101710.66
2023-05-14T08:41:26.890Z,101690.09
2023-05-14T08:44:05.572Z,101690.31
2023-05-14T08:46:33.354Z,101676.47
2023-05-14T08:49:11.236Z,101682.13
2023-05-14T08:51:38.367Z,101699.56
2023-05-14T08:54:05.789Z,101672.09
2023-05-14T08:56:35.942Z,101657.00
2023-05-14T08:59:02.333Z,101670.78
2023-05-14T09:01:29.751Z,101676.84
2023-05-14T09:03:56.722Z,101674.50
2023-05-14T09:06:24.372Z,101667.13
2023-05-14T09:08:50.948Z,101625.81
2023-05-14T09:11:17.343Z,101674.81
2023-05-14T09:13:43.740Z,101672.00
2023-05-14T09:16:10.259Z,101658.53
2023-05-14T09:18:37.002Z,101657.09
2023-05-14T09:21:04.452Z,101655.78
2023-05-14T09:23:34.452Z,101654.63
2023-05-14T09:26:04.749Z,101643.22
2023-05-14T09:28:31.317Z,101663.13
2023-05-14T09:30:57.781Z,101643.16
2023-05-14T09:33:28.296Z,101606.94
2023-05-14T09:35:59.643Z,101588.31
2023-05-14T09:38:30.908Z,101645.44
2023-05-14T09:40:58.385Z,101645.56
2023-05-14T09:43:25.075Z,101583.28
2023-05-14T09:45:54.759Z,101615.50
2023-05-14T09:48:22.469Z,101637.78
2023-05-14T09:50:49.049Z,101631.88
2023-05-14T09:53:15.764Z,101627.06
2023-05-14T09:55:42.255Z,101612.41
2023-05-14T09:58:08.718Z,101621.41
2023-05-14T10:00:36.266Z,101619.09
2023-05-14T10:03:08.010Z,101620.41
2023-05-14T10:05:39.928Z,101607.66
2023-05-14T10:08:14.652Z,101612.69
2023-05-14T10:10:41.247Z,101616.19
2023-05-14T10:13:15.560Z,101614.69
2023-05-14T10:15:47.341Z,101613.25
2023-05-14T10:18:17.885Z,101608.28
2023-05-14T10:20:48.108Z,101605.84
2023-05-14T10:23:14.924Z,101592.84
2023-05-14T10:25:42.238Z,101597.34
2023-05-14T10:28:09.018Z,101583.91
2023-05-14T10:30:35.466Z,101601.59
2023-05-14T10:33:18.628Z,101604.13
2023-05-14T10:35:56.074Z,101568.03
2023-05-14T10:38:27.115Z,101600.53
2023-05-14T10:40:59.269Z,101564.06
2023-05-14T10:43:31.120Z,101593.66
2023-05-14T10:45:58.832Z,101584.66
2023-05-14T10:48:25.971Z,101588.41
2023-05-14T10:50:53.416Z,101593.09
2023-05-14T10:53:20.278Z,101582.69
2023-05-14T10:55:47.186Z,101584.25
2023-05-14T10:58:14.827Z,101584.84
2023-05-14T11:00:41.240Z,101571.44
2023-05-14T11:03:07.785Z,101575.03
2023-05-14T11:05:37.311Z,101578.22
2023-05-14T11:08:07.939Z,101573.88
2023-05-14T11:10:35.563Z,101575.56
2023-05-14T11:13:02.538Z,101557.06
2023-05-14T11:15:29.320Z,101556.25
2023-05-14T11:17:55.790Z,101541.38
2023-05-14T11:20:22.508Z,101550.72
2023-05-14T11:22:50.213Z,101552.16
2023-05-14T11:25:18.348Z,101537.47
2023-05-14T11:27:46.322Z,101532.03
2023-05-14T11:30:20.391Z,101497.38
2023-05-14T11:32:48.909Z,101545.63
2023-05-14T11:35:16.160Z,101538.75
2023-05-14T11:37:43.921Z,101491.84
2023-05-14T11:40:16.694Z,101502.50
2023-05-14T11:42:43.271Z,101522.63
2023-05-14T11:45:14.101Z,101502.31
2023-05-14T11:47:42.186Z,101528.13
2023-05-14T11:50:09.829Z,101533.31
2023-05-14T11:52:41.219Z,101530.94
2023-05-14T11:55:12.559Z,101473.13
2023-05-14T11:57:39.631Z,101529.53
2023-05-14T12:00:16.613Z,101469.69
2023-05-14T12:02:43.097Z,101510.59
2023-05-14T12:05:13.135Z,101512.28
2023-05-14T12:07:39.770Z,101513.91
2023-05-14T12:10:07.297Z,101506.47
2023-05-14T12:12:39.764Z,101516.56
2023-05-14T12:15:13.715Z,101510.63
2023-05-14T12:17:40.806Z,101458.88
2023-05-14T12:20:12.249Z,101496.59
2023-05-14T12:22:39.319Z,101489.44
2023-05-14T12:25:12.703Z,101502.09
2023-05-14T12:27:39.147Z,101467.88
2023-05-14T12:32:40.569Z,101477.72
2023-05-14T12:35:07.892Z,101486.34
2023-05-14T12:37:36.102Z,101478.28
2023-05-14T12:40:04.704Z,101422.66
2023-05-14T12:42:31.178Z,101479.69
2023-05-14T12:44:57.574Z,101457.47
2023-05-14T12:47:24.223Z,101466.88
2023-05-14T12:49:50.850Z,101435.38
2023-05-14T12:52:26.145Z,101436.28
2023-05-14T12:55:03.169Z,101455.66
2023-05-14T12:57:30.273Z,101460.28
2023-05-14T12:59:57.214Z,101426.16
2023-05-14T13:02:23.587Z,101460.63
2023-05-14T13:04:49.989Z,101456.16
2023-05-14T13:07:16.440Z,101442.13
2023-05-14T13:09:43.007Z,101445.91
2023-05-14T13:12:09.605Z,101444.72
2023-05-14T13:14:36.447Z,101451.50
2023-05-14T13:17:04.689Z,101415.53
2023-05-14T13:19:31.184Z,101446.47
2023-05-14T13:21:57.648Z,101441.97
2023-05-14T13:24:25.031Z,101439.78
2023-05-14T13:26:51.462Z,101438.41
2023-05-14T13:29:18.053Z,101433.22
2023-05-14T13:31:44.542Z,101436.06
2023-05-14T13:34:11.354Z,101434.63
2023-05-14T13:36:39.624Z,101405.84
2023-05-14T13:39:07.127Z,101422.38
2023-05-14T13:41:37.842Z,101405.72
2023-05-14T13:44:04.865Z,101422.75
2023-05-14T13:46:31.387Z,101409.81
2023-05-14T13:48:58.043Z,101431.97
2023-05-14T13:51:24.607Z,101430.19
2023-05-14T13:53:51.150Z,101416.78
2023-05-14T13:56:17.672Z,101388.44
2023-05-14T13:58:44.155Z,101411.00
2023-05-14T14:01:10.754Z,101410.75
2023-05-14T14:03:37.411Z,101389.78
2023-05-14T14:06:03.935Z,101413.00
2023-05-14T14:08:32.891Z,101402.25
2023-05-14T14:10:59.405Z,101370.13
2023-05-14T14:13:26.036Z,101396.06
2023-05-14T14:15:52.559Z,101380.09
2023-05-14T14:18:19.045Z,101357.53
2023-05-14T14:20:45.713Z,101369.69
2023-05-14T14:23:15.730Z,101343.81
2023-05-14T14:25:42.372Z,101350.53
2023-05-14T14:28:08.835Z,101380.91
2023-05-14T14:30:35.418Z,101381.44
2023-05-14T14:33:02.129Z,101365.28
2023-05-14T14:35:28.804Z,101365.09
2023-05-14T14:37:55.739Z,101372.66
2023-05-14T14:40:23.986Z,101387.03
2023-05-14T14:42:50.650Z,101321.19
2023-05-14T14:45:17.723Z,101375.75
2023-05-14T14:47:46.329Z,101360.13
2023-05-14T14:50:13.465Z,101368.72
2023-05-14T14:52:45.510Z,101357.31
2023-05-14T14:55:12.702Z,101375.34
2023-05-14T14:57:39.377Z,101350.84
2023-05-14T15:00:07.183Z,101364.88
2023-05-14T15:02:34.196Z,101345.28
2023-05-14T15:05:00.884Z,101368.41
2023-05-14T15:07:27.309Z,101346.81
2023-05-14T15:09:53.728Z,101345.78
2023-05-14T15:12:20.365Z,101334.91
2023-05-14T15:14:46.912Z,101333.28
2023-05-14T15:17:13.485Z,101338.22
2023-05-14T15:19:39.977Z,101347.91
2023-05-14T15:22:06.496Z,101347.31
2023-05-14T15:24:33.538Z,101331.72
2023-05-14T15:26:59.976Z,101330.44
2023-05-14T15:29:26.528Z,101331.81
2023-05-14T15:31:53.011Z,101313.44
2023-05-14T15:34:19.412Z,101337.41
2023-05-14T15:36:46.098Z,101331.28
2023-05-14T15:39:12.961Z,101331.44
2023-05-14T15:41:39.719Z,101327.38
2023-05-14T15:44:06.155Z,101319.13
2023-05-14T15:46:32.761Z,101327.53
2023-05-14T15:48:59.358Z,101321.41
2023-05-14T15:51:25.864Z,101284.44
2023-05-14T15:53:55.690Z,101293.09
2023-05-14T15:56:23.003Z,101273.53
2023-05-14T15:58:49.798Z,101313.25
2023-05-14T16:01:16.372Z,101310.84
2023-05-14T16:03:43.013Z,101316.38
2023-05-14T16:06:21.926Z,101279.88
2023-05-14T16:08:49.208Z,101288.84
2023-05-14T16:11:17.110Z,101310.50
2023-05-14T16:13:43.508Z,101302.63
2023-05-14T16:16:10.295Z,101258.22
2023-05-14T16:18:36.813Z,101308.38
2023-05-14T16:21:03.590Z,101289.59
2023-05-14T16:23:30.509Z,101296.28
2023-05-14T16:25:58.048Z,101278.16
2023-05-14T16:28:24.555Z,101295.84
2023-05-14T16:30:50.993Z,101296.78
2023-05-14T16:33:17.472Z,101294.53
2023-05-14T16:35:45.339Z,101294.69
2023-05-14T16:38:11.767Z,101291.44
2023-05-14T16:40:38.391Z,101293.19
2023-05-14T16:43:04.994Z,101233.66
2023-05-14T16:45:32.616Z,101277.31
2023-05-14T16:48:01.380Z,101281.28
2023-05-14T16:50:28.013Z,101290.13
2023-05-14T16:52:54.734Z,101280.38
2023-05-14T16:55:21.132Z,101241.88
2023-05-14T16:57:47.751Z,101277.47
2023-05-14T17:00:15.265Z,101276.69
2023-05-14T17:02:41.809Z,101276.63
2023-05-14T17:05:08.896Z,101271.56
2023-05-14T17:07:37.288Z,101281.72
2023-05-14T17:10:04.004Z,101275.38
2023-05-14T17:12:30.502Z,101236.38
2023-05-14T17:14:56.884Z,101293.19
2023-05-14T17:17:23.481Z,101293.31
2023-05-14T17:19:49.866Z,101294.22
2023-05-14T17:22:16.270Z,101275.38
2023-05-14T17:24:42.837Z,101289.97
2023-05-14T17:27:09.396Z,101281.97
2023-05-14T17:29:35.850Z,101282.97
2023-05-14T17:32:03.550Z,101279.56
2023-05-14T17:34:30.532Z,101265.53
2023-05-14T17:36:57.046Z,101288.63
2023-05-14T17:39:23.554Z,101255.06
2023-05-14T17:41:49.955Z,101259.91
2023-05-14T17:44:16.522Z,101286.09
2023-05-14T17:46:44.652Z,101276.22
2023-05-14T17:49:11.912Z,101280.78
2023-05-14T17:51:38.535Z,101259.81
2023-05-14T17:54:04.984Z,101271.03
2023-05-14T17:56:31.593Z,101286.41
2023-05-14T17:58:57.994Z,101273.16
2023-05-14T18:01:24.583Z,101272.28
2023-05-14T18:03:51.153Z,101280.59
2023-05-14T18:06:17.753Z,101280.16
2023-05-14T18:08:44.153Z,101279.34
2023-05-14T18:11:10.595Z,101289.25
2023-05-14T18:13:37.000Z,101284.63
2023-05-14T18:16:03.823Z,101279.06
2023-05-14T18:18:30.887Z,101268.88
2023-05-14T18:20:58.145Z,101298.50
2023-05-14T18:23:24.555Z,101274.34
2023-05-14T18:25:51.089Z,101294.53
2023-05-14T18:28:18.916Z,101284.38
2023-05-14T18:30:45.691Z,101274.91
2023-05-14T18:33:12.263Z,101288.78
2023-05-14T18:35:38.769Z,101292.81
2023-05-14T18:38:07.810Z,101289.13
2023-05-14T18:40:34.699Z,101296.03
2023-05-14T18:43:01.464Z,101293.94
2023-05-14T18:45:27.988Z,101291.41
2023-05-14T18:47:55.241Z,101263.31
2023-05-14T18:50:21.673Z,101294.63
2023-05-14T18:52:48.160Z,101307.47
2023-05-14T18:55:14.571Z,101290.22
2023-05-14T18:57:41.061Z,101269.78
2023-05-14T19:00:08.465Z,101304.78
2023-05-14T19:02:34.983Z,101304.47
2023-05-14T19:05:01.475Z,101247.06
2023-05-14T19:07:28.402Z,101291.53
2023-05-14T19:09:54.798Z,101263.72
2023-05-14T19:12:21.267Z,101276.16
2023-05-14T19:14:47.684Z,101305.28
2023-05-14T19:17:14.361Z,101303.00
2023-05-14T19:19:40.862Z,101294.00
2023-05-14T19:22:07.466Z,101296.88
2023-05-14T19:24:34.020Z,101253.69
2023-05-14T19:27:00.759Z,101271.97
2023-05-14T19:29:27.181Z,101296.53
2023-05-14T19:31:53.663Z,101301.81
2023-05-14T19:34:20.449Z,101298.25
2023-05-14T19:36:47.345Z,101303.44
2023-05-14T19:39:13.746Z,101301.16
2023-05-14T19:41:40.520Z,101286.63
2023-05-14T19:44:06.969Z,101306.97
2023-05-14T19:46:33.808Z,101301.44
2023-05-14T19:49:00.339Z,101299.34
2023-05-14T19:51:26.894Z,101299.56
2023-05-14T19:53:53.422Z,101288.03
2023-05-14T19:56:27.844Z,101295.78
2023-05-14T19:58:54.319Z,101247.75
2023-05-14T20:01:20.908Z,101299.72
2023-05-14T20:03:47.736Z,101280.13
2023-05-14T20:06:14.223Z,101291.06
2023-05-14T20:08:40.620Z,101302.38
2023-05-14T20:11:07.115Z,101306.44
2023-05-14T20:13:35.446Z,101270.78
2023-05-14T20:16:02.205Z,101305.66
2023-05-14T20:18:28.819Z,101284.63
2023-05-14T20:20:55.791Z,101304.28
2023-05-14T20:23:22.384Z,101277.03
2023-05-14T20:25:48.859Z,101306.66
2023-05-14T20:28:15.510Z,101270.31
2023-05-14T20:30:42.436Z,101295.03
2023-05-14T20:33:09.192Z,101296.72
2023-05-14T20:35:36.037Z,101295.38
2023-05-14T20:38:06.011Z,101290.16
2023-05-14T20:40:32.847Z,101289.47
2023-05-14T20:42:59.414Z,101290.69
2023-05-14T20:45:26.032Z,101282.41
2023-05-14T20:47:52.854Z,101281.56
2023-05-14T20:50:19.517Z,101276.69
2023-05-14T20:52:46.306Z,101281.22
2023-05-14T20:55:13.273Z,101275.69
2023-05-14T20:57:40.658Z,101239.66
2023-05-14T21:00:10.174Z,101267.75
2023-05-14T21:02:37.140Z,101272.13
2023-05-14T21:05:04.083Z,101236.44
2023-05-14T21:07:31.616Z,101239.97
2023-05-14T21:09:58.083Z,101265.56
2023-05-14T21:12:24.617Z,101256.31
2023-05-14T21:14:51.015Z,101244.50
2023-05-14T21:17:17.517Z,101239.78
2023-05-14T21:19:43.939Z,101255.28
2023-05-14T21:22:10.359Z,101236.09
2023-05-14T21:24:36.808Z,101218.03
2023-05-14T21:27:03.327Z,101249.13
2023-05-14T21:29:29.739Z,101211.91
2023-05-14T21:31:56.240Z,101248.09
2023-05-14T21:34:22.746Z,101242.88
2023-05-14T21:36:49.261Z,101186.81
2023-05-14T21:39:15.891Z,101243.03
2023-05-14T21:41:42.327Z,101227.19
2023-05-14T21:44:08.968Z,101239.63
2023-05-14T21:46:35.970Z,101219.41
2023-05-14T21:49:02.902Z,101220.53
2023-05-14T21:51:29.472Z,101195.59
2023-05-14T21:53:55.917Z,101236.31
2023-05-14T21:56:22.660Z,101234.66
2023-05-14T21:58:49.117Z,101193.00
2023-05-14T22:01:15.773Z,101188.88
2023-05-14T22:03:42.281Z,101224.97
2023-05-14T22:06:08.973Z,101221.38
2023-05-14T22:08:35.489Z,101221.88
2023-05-14T22:11:02.157Z,101230.53
2023-05-14T22:13:28.593Z,101212.56
2023-05-14T22:16:01.554Z,101210.63
2023-05-14T22:18:38.859Z,101227.03
2023-05-14T22:21:05.526Z,101215.25
2023-05-14T22:23:32.017Z,101213.88
2023-05-14T22:25:58.497Z,101204.91
2023-05-14T22:28:24.934Z,101158.06
2023-05-14T22:30:51.608Z,101205.00
2023-05-14T22:33:19.281Z,101212.34
2023-05-14T22:35:45.973Z,101203.25
2023-05-14T22:38:13.664Z,101205.25
2023-05-14T22:40:40.212Z,101148.94
2023-05-14T22:43:06.650Z,101197.81
2023-05-14T22:45:33.093Z,101153.16
2023-05-14T22:47:59.771Z,101164.97
2023-05-14T22:50:27.179Z,101163.97
2023-05-14T22:52:53.739Z,101171.00
2023-05-14T22:55:20.191Z,101174.38
2023-05-14T22:57:46.721Z,101170.84
2023-05-14T23:00:13.674Z,101168.50
2023-05-14T23:02:40.418Z,101173.31
2023-05-14T23:05:08.223Z,101169.25
2023-05-14T23:07:35.199Z,101166.00
2023-05-14T23:10:01.936Z,101163.47
2023-05-14T23:12:28.428Z,101171.00
2023-05-14T23:14:54.888Z,101155.38
2023-05-14T23:17:21.540Z,101154.84
2023-05-14T23:19:48.059Z,101154.28
2023-05-14T23:22:14.525Z,101128.66
2023-05-14T23:24:40.985Z,101149.09
2023-05-14T23:27:07.612Z,101153.78
2023-05-14T23:29:34.089Z,101122.75
2023-05-14T23:32:00.747Z,101109.78
2023-05-14T23:34:27.268Z,101132.53
2023-05-14T23:36:53.995Z,101141.56
2023-05-14T23:39:21.553Z,101099.41
2023-05-14T23:41:47.984Z,101130.78
2023-05-14T23:44:15.128Z,101127.00
2023-05-14T23:46:41.768Z,101122.78
2023-05-14T23:49:08.457Z,101122.38
2023-05-14T23:51:34.963Z,101124.81
2023-05-14T23:54:01.462Z,101122.28
2023-05-14T23:56:29.181Z,101117.53
2023-05-14T23:58:55.946Z,101107.25
